Time;durP1;ratioP1;P1;durP2;ratioP2;P2;SDS_P1;SDS_P2;PMS_P1;PMS_P2;Temp;Humidity;BMP_temperature;BMP_pressure;BME280_temperature;BME280_humidity;BME280_pressure;Samples;Min_cycle;Max_cycle;Signal;HPM_P1;HPM_P2
2023/06/27 00:00:02;;;;;;;0.47;0.40;;;;;;;;;;5050944;28;20075;-60
2023/06/27 00:02:28;;;;;;;0.80;0.68;;;;;;;;;;5057008;28;20041;-60
2023/06/27 00:04:56;;;;;;;1.23;0.60;;;;;;;;;;5058790;28;20454;-61
2023/06/27 00:07:27;;;;;;;0.95;0.60;;;;;;;;;;5059599;28;20091;-60
2023/06/27 00:09:53;;;;;;;1.08;0.65;;;;;;;;;;5054700;28;20081;-61
2023/06/27 00:12:19;;;;;;;0.75;0.75;;;;;;;;;;5055376;28;20051;-60
2023/06/27 00:14:45;;;;;;;0.65;0.60;;;;;;;;;;5058922;28;20051;-59
2023/06/27 00:17:12;;;;;;;0.80;0.60;;;;;;;;;;5054830;28;20155;-58
2023/06/27 00:19:38;;;;;;;1.98;0.82;;;;;;;;;;5060542;28;20074;-59
2023/06/27 00:22:09;;;;;;;0.50;0.50;;;;;;;;;;5056285;28;20048;-59
2023/06/27 00:24:35;;;;;;;0.75;0.60;;;;;;;;;;5050367;28;20051;-59
2023/06/27 00:27:01;;;;;;;0.60;0.40;;;;;;;;;;5054150;28;20044;-59
2023/06/27 00:29:27;;;;;;;0.73;0.60;;;;;;;;;;5046547;28;20040;-59
2023/06/27 00:31:55;;;;;;;0.60;0.60;;;;;;;;;;5045694;28;20094;-59
2023/06/27 00:34:21;;;;;;;0.60;0.60;;;;;;;;;;5048479;28;20070;-59
2023/06/27 00:36:47;;;;;;;0.73;0.70;;;;;;;;;;5056544;28;20037;-59
2023/06/27 00:39:13;;;;;;;2.47;0.95;;;;;;;;;;5055853;28;20107;-59
2023/06/27 00:41:40;;;;;;;0.95;0.60;;;;;;;;;;5057670;28;20068;-59
2023/06/27 00:44:09;;;;;;;0.77;0.70;;;;;;;;;;5055374;28;20044;-59
2023/06/27 00:46:37;;;;;;;0.68;0.50;;;;;;;;;;5055813;28;20068;-59
2023/06/27 00:49:03;;;;;;;0.50;0.50;;;;;;;;;;5053423;28;20550;-59
2023/06/27 00:51:29;;;;;;;0.80;0.50;;;;;;;;;;5051949;28;20128;-59
2023/06/27 00:53:56;;;;;;;0.85;0.50;;;;;;;;;;5057007;28;20048;-59
2023/06/27 00:56:22;;;;;;;0.77;0.57;;;;;;;;;;5059183;28;20044;-60
2023/06/27 00:58:49;;;;;;;1.60;0.70;;;;;;;;;;5051787;28;20052;-59
2023/06/27 01:01:16;;;;;;;0.60;0.60;;;;;;;;;;5052878;28;20051;-59
2023/06/27 01:03:42;;;;;;;1.15;0.70;;;;;;;;;;5054813;28;20041;-59
2023/06/27 01:06:14;;;;;;;2.03;0.75;;;;;;;;;;5054660;28;20037;-59
2023/06/27 01:08:47;;;;;;;0.70;0.50;;;;;;;;;;5055896;28;20543;-59
2023/06/27 01:11:35;;;;;;;0.63;0.63;;;;;;;;;;5057411;28;20045;-59
2023/06/27 01:14:03;;;;;;;0.68;0.50;;;;;;;;;;5056117;28;20145;-59
2023/06/27 01:16:30;;;;;;;1.02;0.80;;;;;;;;;;5055581;28;20045;-59
2023/06/27 01:18:58;;;;;;;0.93;0.82;;;;;;;;;;5056389;28;20043;-59
2023/06/27 01:21:25;;;;;;;1.25;0.80;;;;;;;;;;5053523;28;20048;-59
2023/06/27 01:23:55;;;;;;;0.77;0.60;;;;;;;;;;5052597;28;20120;-59
2023/06/27 01:26:21;;;;;;;0.90;0.57;;;;;;;;;;5059186;28;20040;-60
2023/06/27 01:28:47;;;;;;;1.30;0.70;;;;;;;;;;5055763;28;20037;-59
2023/06/27 01:31:28;;;;;;;1.00;0.70;;;;;;;;;;5056581;28;20574;-59
2023/06/27 01:34:00;;;;;;;0.90;0.88;;;;;;;;;;5055498;28;20041;-59
2023/06/27 01:36:34;;;;;;;0.82;0.52;;;;;;;;;;5053351;28;20493;-60
2023/06/27 01:39:07;;;;;;;0.98;0.73;;;;;;;;;;5052675;28;20400;-59
2023/06/27 01:41:37;;;;;;;0.90;0.60;;;;;;;;;;5052558;28;20171;-59
2023/06/27 01:44:04;;;;;;;0.88;0.70;;;;;;;;;;5052281;28;20055;-59
2023/06/27 01:46:30;;;;;;;1.20;0.90;;;;;;;;;;5053152;28;20098;-60
2023/06/27 01:48:57;;;;;;;0.80;0.60;;;;;;;;;;5054875;28;20044;-59
2023/06/27 01:51:23;;;;;;;0.90;0.60;;;;;;;;;;5068762;28;20078;-59
2023/06/27 01:53:49;;;;;;;0.50;0.50;;;;;;;;;;5055209;28;20040;-60
2023/06/27 01:56:15;;;;;;;0.40;0.40;;;;;;;;;;5054169;28;20037;-59
2023/06/27 01:58:41;;;;;;;0.73;0.52;;;;;;;;;;5053804;28;20051;-60
2023/06/27 02:01:08;;;;;;;0.50;0.50;;;;;;;;;;5054501;28;20033;-60
2023/06/27 02:03:34;;;;;;;0.70;0.70;;;;;;;;;;5055700;28;20770;-59
2023/06/27 02:06:00;;;;;;;0.40;0.40;;;;;;;;;;5053981;28;20149;-59
2023/06/27 02:08:26;;;;;;;0.47;0.47;;;;;;;;;;5056961;28;20127;-59
2023/06/27 02:10:52;;;;;;;0.80;0.68;;;;;;;;;;5050936;28;20110;-59
2023/06/27 02:13:18;;;;;;;0.40;0.40;;;;;;;;;;5055541;28;20711;-59
2023/06/27 02:15:44;;;;;;;0.60;0.43;;;;;;;;;;5053684;28;20045;-59
2023/06/27 02:18:11;;;;;;;0.70;0.50;;;;;;;;;;5052251;28;20598;-59
2023/06/27 02:20:37;;;;;;;0.80;0.57;;;;;;;;;;5052980;28;20167;-59
2023/06/27 02:23:03;;;;;;;1.00;0.50;;;;;;;;;;5053000;28;20045;-60
2023/06/27 02:25:29;;;;;;;0.38;0.30;;;;;;;;;;5054619;28;20044;-60
2023/06/27 02:27:55;;;;;;;0.50;0.40;;;;;;;;;;5053791;28;20121;-59
2023/06/27 02:30:21;;;;;;;0.40;0.40;;;;;;;;;;5055145;28;20048;-59
2023/06/27 02:32:47;;;;;;;0.43;0.38;;;;;;;;;;5052414;28;20037;-59
2023/06/27 02:35:15;;;;;;;0.70;0.52;;;;;;;;;;5049942;28;20037;-60
2023/06/27 02:37:41;;;;;;;0.90;0.57;;;;;;;;;;5051643;28;20047;-59
2023/06/27 02:40:08;;;;;;;0.57;0.38;;;;;;;;;;5051022;28;20118;-59
2023/06/27 02:42:34;;;;;;;0.30;0.30;;;;;;;;;;5056434;28;20048;-59
2023/06/27 02:45:00;;;;;;;0.50;0.50;;;;;;;;;;5053825;28;20049;-59
2023/06/27 02:47:26;;;;;;;0.73;0.60;;;;;;;;;;5033963;28;20040;-59
2023/06/27 02:49:52;;;;;;;0.95;0.52;;;;;;;;;;5055203;28;20048;-59
2023/06/27 02:52:18;;;;;;;0.50;0.50;;;;;;;;;;5051712;28;20047;-59
2023/06/27 02:54:44;;;;;;;0.68;0.60;;;;;;;;;;5056399;28;20504;-60
2023/06/27 02:57:10;;;;;;;0.40;0.40;;;;;;;;;;5053810;28;20047;-60
2023/06/27 02:59:36;;;;;;;0.45;0.43;;;;;;;;;;5056852;28;20036;-59
2023/06/27 03:02:02;;;;;;;1.05;0.60;;;;;;;;;;5051320;28;20033;-59
2023/06/27 03:04:28;;;;;;;0.63;0.63;;;;;;;;;;5053058;28;20146;-59
2023/06/27 03:06:55;;;;;;;0.60;0.60;;;;;;;;;;5055661;28;20055;-59
2023/06/27 03:09:21;;;;;;;0.88;0.70;;;;;;;;;;5052978;28;20052;-60
2023/06/27 03:11:47;;;;;;;0.75;0.60;;;;;;;;;;5056272;28;20068;-59
2023/06/27 03:14:17;;;;;;;0.50;0.50;;;;;;;;;;5054274;28;20048;-60
2023/06/27 03:16:43;;;;;;;0.77;0.60;;;;;;;;;;5054650;28;20048;-59
2023/06/27 03:19:09;;;;;;;1.52;0.80;;;;;;;;;;5053103;28;20044;-59
2023/06/27 03:21:35;;;;;;;0.85;0.65;;;;;;;;;;5052998;28;20033;-60
2023/06/27 03:24:01;;;;;;;0.75;0.70;;;;;;;;;;5058052;28;20421;-59
2023/06/27 03:26:28;;;;;;;0.55;0.55;;;;;;;;;;5051848;28;20037;-59
2023/06/27 03:28:56;;;;;;;0.93;0.70;;;;;;;;;;5052351;28;20041;-59
2023/06/27 03:31:23;;;;;;;0.70;0.70;;;;;;;;;;5054256;28;20048;-60
2023/06/27 03:33:50;;;;;;;1.17;0.60;;;;;;;;;;5031357;28;20549;-59
2023/06/27 03:36:16;;;;;;;0.98;0.60;;;;;;;;;;5053300;28;20334;-59
2023/06/27 03:38:45;;;;;;;0.80;0.60;;;;;;;;;;5051745;28;20630;-59
2023/06/27 03:41:11;;;;;;;2.05;0.93;;;;;;;;;;5051498;28;20445;-59
2023/06/27 03:43:37;;;;;;;0.40;0.40;;;;;;;;;;5055842;28;20670;-59
2023/06/27 03:46:03;;;;;;;0.70;0.47;;;;;;;;;;5055245;28;20048;-60
2023/06/27 03:48:29;;;;;;;0.57;0.40;;;;;;;;;;5051506;28;20072;-60
2023/06/27 03:50:56;;;;;;;0.55;0.50;;;;;;;;;;5050430;28;20079;-59
2023/06/27 03:53:22;;;;;;;0.32;0.30;;;;;;;;;;5048208;28;20040;-59
2023/06/27 03:55:48;;;;;;;0.60;0.52;;;;;;;;;;5053260;28;20102;-59
2023/06/27 03:58:14;;;;;;;0.63;0.50;;;;;;;;;;5053422;28;20033;-59
2023/06/27 04:00:42;;;;;;;0.30;0.30;;;;;;;;;;5053781;28;20041;-59
2023/06/27 04:03:08;;;;;;;0.70;0.50;;;;;;;;;;5055115;28;20052;-60
2023/06/27 04:05:34;;;;;;;0.40;0.30;;;;;;;;;;5057473;28;20490;-59
2023/06/27 04:08:00;;;;;;;0.20;0.20;;;;;;;;;;5057481;28;20052;-59
2023/06/27 04:10:26;;;;;;;0.38;0.30;;;;;;;;;;5053885;28;20377;-60
2023/06/27 04:12:53;;;;;;;0.30;0.30;;;;;;;;;;5059403;28;20136;-60
2023/06/27 04:15:19;;;;;;;0.35;0.28;;;;;;;;;;5057611;28;20041;-59
2023/06/27 04:17:45;;;;;;;1.00;0.20;;;;;;;;;;5056714;28;20094;-59
2023/06/27 04:20:12;;;;;;;0.30;0.30;;;;;;;;;;5056186;28;20059;-59
2023/06/27 04:22:38;;;;;;;0.65;0.40;;;;;;;;;;5055454;28;20400;-59
2023/06/27 04:25:07;;;;;;;0.28;0.28;;;;;;;;;;5056214;28;20036;-59
2023/06/27 04:27:33;;;;;;;0.10;0.10;;;;;;;;;;5055372;28;20068;-59
2023/06/27 04:30:00;;;;;;;0.43;0.30;;;;;;;;;;5055083;28;20450;-59
2023/06/27 04:32:26;;;;;;;0.25;0.25;;;;;;;;;;5055972;28;20488;-59
2023/06/27 04:34:52;;;;;;;0.52;0.40;;;;;;;;;;5054750;28;20076;-59
2023/06/27 04:37:18;;;;;;;0.35;0.30;;;;;;;;;;5056710;28;20060;-59
2023/06/27 04:39:44;;;;;;;0.20;0.20;;;;;;;;;;5055517;28;20189;-60
2023/06/27 04:42:10;;;;;;;0.40;0.40;;;;;;;;;;5057886;28;20097;-59
2023/06/27 04:44:37;;;;;;;0.47;0.20;;;;;;;;;;5056296;28;20045;-59
2023/06/27 04:47:03;;;;;;;0.13;0.10;;;;;;;;;;5056155;28;20044;-59
2023/06/27 04:49:29;;;;;;;1.05;0.50;;;;;;;;;;5057178;28;20049;-59
2023/06/27 04:51:56;;;;;;;0.20;0.17;;;;;;;;;;5057552;28;20043;-59
2023/06/27 04:54:22;;;;;;;0.40;0.40;;;;;;;;;;5051942;28;20058;-59
2023/06/27 04:56:48;;;;;;;0.20;0.20;;;;;;;;;;5056790;28;20469;-59
2023/06/27 04:59:14;;;;;;;0.20;0.20;;;;;;;;;;5052863;28;20091;-59
2023/06/27 05:01:40;;;;;;;0.20;0.20;;;;;;;;;;5054092;28;20159;-59
2023/06/27 05:04:06;;;;;;;0.13;0.13;;;;;;;;;;5056116;28;20064;-59
2023/06/27 05:06:35;;;;;;;0.40;0.40;;;;;;;;;;5055734;28;20071;-59
2023/06/27 05:09:01;;;;;;;0.45;0.40;;;;;;;;;;5058029;28;20102;-59
2023/06/27 05:11:28;;;;;;;0.50;0.30;;;;;;;;;;5053273;28;20611;-59
2023/06/27 05:13:54;;;;;;;0.35;0.30;;;;;;;;;;5055648;28;20124;-59
2023/06/27 05:16:20;;;;;;;0.10;0.10;;;;;;;;;;5054104;28;20428;-60
2023/06/27 05:18:46;;;;;;;0.20;0.20;;;;;;;;;;5057858;28;20048;-60
2023/06/27 05:21:12;;;;;;;0.20;0.20;;;;;;;;;;5057206;28;20051;-59
2023/06/27 05:23:38;;;;;;;0.20;0.20;;;;;;;;;;5053191;28;20054;-59
2023/06/27 05:26:04;;;;;;;0.30;0.20;;;;;;;;;;5055083;28;20037;-59
2023/06/27 05:28:30;;;;;;;0.20;0.20;;;;;;;;;;5056247;28;20470;-59
2023/06/27 05:30:57;;;;;;;0.20;0.20;;;;;;;;;;5059216;28;20037;-60
2023/06/27 05:33:23;;;;;;;1.33;0.20;;;;;;;;;;5052571;28;20768;-59
2023/06/27 05:35:49;;;;;;;0.50;0.25;;;;;;;;;;5056876;28;20098;-59
2023/06/27 05:38:16;;;;;;;0.90;0.38;;;;;;;;;;5054381;28;20041;-59
2023/06/27 05:40:42;;;;;;;0.30;0.30;;;;;;;;;;5069917;28;20048;-59
2023/06/27 05:43:08;;;;;;;0.68;0.40;;;;;;;;;;5055196;28;20480;-59
2023/06/27 05:45:34;;;;;;;0.22;0.20;;;;;;;;;;5058336;28;20040;-59
2023/06/27 05:48:00;;;;;;;0.50;0.28;;;;;;;;;;5058619;28;20084;-59
2023/06/27 05:50:27;;;;;;;0.15;0.15;;;;;;;;;;5056727;28;20579;-59
2023/06/27 05:52:53;;;;;;;0.50;0.20;;;;;;;;;;5051657;28;20400;-59
2023/06/27 05:55:19;;;;;;;0.40;0.20;;;;;;;;;;5053244;28;20399;-59
2023/06/27 05:57:45;;;;;;;0.20;0.20;;;;;;;;;;5053952;28;20359;-59
2023/06/27 06:00:13;;;;;;;0.40;0.20;;;;;;;;;;5052588;28;20098;-59
2023/06/27 06:02:39;;;;;;;1.35;0.30;;;;;;;;;;5052416;28;20208;-59
2023/06/27 06:05:07;;;;;;;0.45;0.38;;;;;;;;;;5054451;28;20052;-59
2023/06/27 06:07:33;;;;;;;0.20;0.10;;;;;;;;;;5053017;28;20098;-59
2023/06/27 06:09:59;;;;;;;1.00;0.20;;;;;;;;;;5057363;28;20054;-59
2023/06/27 06:12:25;;;;;;;0.55;0.30;;;;;;;;;;5053010;28;20056;-60
2023/06/27 06:14:51;;;;;;;0.93;0.20;;;;;;;;;;5052909;28;20055;-60
2023/06/27 06:17:17;;;;;;;0.40;0.40;;;;;;;;;;5052460;28;20033;-60
2023/06/27 06:19:43;;;;;;;0.40;0.25;;;;;;;;;;5056974;28;20051;-60
2023/06/27 06:22:09;;;;;;;0.28;0.28;;;;;;;;;;5056943;28;20037;-60
2023/06/27 06:24:35;;;;;;;1.02;0.25;;;;;;;;;;5055942;28;20036;-59
2023/06/27 06:27:01;;;;;;;0.17;0.17;;;;;;;;;;5054184;28;20413;-59
2023/06/27 06:29:27;;;;;;;0.10;0.10;;;;;;;;;;5052618;28;20059;-60
2023/06/27 06:31:53;;;;;;;1.45;0.38;;;;;;;;;;5069889;28;20044;-60
2023/06/27 06:34:19;;;;;;;0.52;0.32;;;;;;;;;;5053390;28;20037;-60
2023/06/27 06:36:45;;;;;;;0.88;0.30;;;;;;;;;;5054222;28;20609;-59
2023/06/27 06:39:11;;;;;;;1.05;0.30;;;;;;;;;;5052182;28;20045;-60
2023/06/27 06:41:37;;;;;;;1.73;0.25;;;;;;;;;;5051946;28;20051;-60
2023/06/27 06:44:03;;;;;;;0.70;0.30;;;;;;;;;;5052844;28;20041;-60
2023/06/27 06:46:29;;;;;;;0.90;0.30;;;;;;;;;;5053730;28;20047;-60
2023/06/27 06:48:55;;;;;;;0.47;0.30;;;;;;;;;;5051947;28;20119;-60
2023/06/27 06:51:23;;;;;;;0.32;0.32;;;;;;;;;;5053024;28;20038;-59
2023/06/27 06:53:49;;;;;;;0.30;0.20;;;;;;;;;;5050289;28;20488;-60
2023/06/27 06:56:15;;;;;;;0.85;0.38;;;;;;;;;;5053770;28;20048;-60
2023/06/27 06:58:41;;;;;;;0.13;0.13;;;;;;;;;;5053935;28;20044;-60
2023/06/27 07:01:07;;;;;;;1.10;0.40;;;;;;;;;;5052640;28;20047;-60
2023/06/27 07:03:33;;;;;;;1.05;0.30;;;;;;;;;;5051424;28;20837;-59
2023/06/27 07:05:59;;;;;;;0.73;0.30;;;;;;;;;;5052388;28;20039;-60
2023/06/27 07:08:25;;;;;;;1.85;0.57;;;;;;;;;;5054227;28;20443;-59
2023/06/27 07:10:52;;;;;;;1.63;0.50;;;;;;;;;;5054277;28;20155;-60
2023/06/27 07:13:18;;;;;;;1.25;0.60;;;;;;;;;;5051198;28;20036;-60
2023/06/27 07:15:44;;;;;;;1.48;0.70;;;;;;;;;;5055137;28;20044;-60
2023/06/27 07:18:11;;;;;;;2.35;0.70;;;;;;;;;;5053133;28;20048;-60
2023/06/27 07:20:37;;;;;;;1.15;0.47;;;;;;;;;;5052057;28;20392;-59
2023/06/27 07:23:03;;;;;;;0.40;0.25;;;;;;;;;;5052413;28;20036;-60
2023/06/27 07:25:29;;;;;;;0.43;0.40;;;;;;;;;;5055146;28;20102;-60
2023/06/27 07:27:55;;;;;;;0.63;0.40;;;;;;;;;;5057548;28;20040;-60
2023/06/27 07:30:21;;;;;;;0.47;0.20;;;;;;;;;;5054009;28;20040;-59
2023/06/27 07:32:47;;;;;;;0.90;0.57;;;;;;;;;;5048773;28;20063;-59
2023/06/27 07:35:13;;;;;;;0.45;0.25;;;;;;;;;;5055770;28;20143;-59
2023/06/27 07:37:39;;;;;;;1.65;0.40;;;;;;;;;;5058486;28;20044;-59
2023/06/27 07:40:07;;;;;;;1.27;0.40;;;;;;;;;;5058322;28;20045;-60
2023/06/27 07:42:33;;;;;;;0.65;0.30;;;;;;;;;;5041145;28;20045;-60
2023/06/27 07:44:59;;;;;;;2.63;0.35;;;;;;;;;;5057600;28;20119;-60
2023/06/27 07:47:25;;;;;;;0.55;0.28;;;;;;;;;;5053752;28;20124;-60
2023/06/27 07:49:51;;;;;;;0.40;0.20;;;;;;;;;;5055485;28;20579;-60
2023/06/27 07:52:17;;;;;;;2.47;0.68;;;;;;;;;;5057405;28;20045;-60
2023/06/27 07:54:43;;;;;;;0.68;0.40;;;;;;;;;;5059742;28;20045;-60
2023/06/27 07:57:09;;;;;;;1.65;0.60;;;;;;;;;;5055521;28;20045;-60
2023/06/27 07:59:35;;;;;;;2.90;0.82;;;;;;;;;;5058874;28;20036;-60
2023/06/27 08:02:01;;;;;;;1.00;0.50;;;;;;;;;;5057704;28;20044;-61
2023/06/27 08:04:27;;;;;;;0.90;0.40;;;;;;;;;;5055710;28;20048;-61
2023/06/27 08:06:53;;;;;;;1.30;0.30;;;;;;;;;;5059997;28;20040;-60
2023/06/27 08:09:20;;;;;;;1.05;0.40;;;;;;;;;;5055845;28;20033;-60
2023/06/27 08:11:46;;;;;;;1.40;0.50;;;;;;;;;;5057337;28;20064;-60
2023/06/27 08:14:12;;;;;;;0.38;0.20;;;;;;;;;;5053691;28;20109;-60
2023/06/27 08:16:39;;;;;;;0.20;0.10;;;;;;;;;;5054884;28;20040;-60
2023/06/27 08:19:05;;;;;;;1.08;0.20;;;;;;;;;;5052984;28;20040;-60
2023/06/27 08:21:31;;;;;;;0.77;0.40;;;;;;;;;;5060576;28;20051;-60
2023/06/27 08:23:57;;;;;;;0.95;0.38;;;;;;;;;;5059133;28;20036;-60
2023/06/27 08:26:23;;;;;;;2.08;0.63;;;;;;;;;;5058864;28;20463;-60
2023/06/27 08:28:49;;;;;;;0.88;0.30;;;;;;;;;;5058523;28;20094;-60
2023/06/27 08:31:15;;;;;;;0.45;0.22;;;;;;;;;;5058081;28;20041;-60
2023/06/27 08:33:41;;;;;;;0.43;0.40;;;;;;;;;;5052348;28;20044;-60
2023/06/27 08:36:07;;;;;;;1.20;0.45;;;;;;;;;;5062459;28;20032;-60
2023/06/27 08:38:33;;;;;;;0.45;0.30;;;;;;;;;;5056937;28;20040;-64
2023/06/27 08:41:00;;;;;;;2.80;0.65;;;;;;;;;;5048134;28;20091;-61
2023/06/27 08:43:27;;;;;;;1.55;0.50;;;;;;;;;;5064438;28;20154;-62
2023/06/27 08:45:54;;;;;;;1.95;0.60;;;;;;;;;;5058462;28;20464;-61
2023/06/27 08:48:20;;;;;;;1.17;0.47;;;;;;;;;;5067147;28;20044;-61
2023/06/27 08:50:49;;;;;;;2.05;0.57;;;;;;;;;;5062908;28;20047;-62
2023/06/27 08:53:17;;;;;;;0.52;0.40;;;;;;;;;;5050069;28;20583;-62
2023/06/27 08:55:46;;;;;;;0.65;0.30;;;;;;;;;;5062244;28;20050;-61
2023/06/27 08:58:14;;;;;;;1.42;0.40;;;;;;;;;;5055190;28;20051;-61
2023/06/27 09:00:40;;;;;;;0.70;0.40;;;;;;;;;;5061145;28;20040;-61
2023/06/27 09:03:06;;;;;;;1.05;0.28;;;;;;;;;;5060026;28;20044;-61
2023/06/27 09:05:34;;;;;;;0.75;0.25;;;;;;;;;;5056862;28;20033;-61
2023/06/27 09:08:00;;;;;;;3.53;0.50;;;;;;;;;;5053157;28;20479;-62
2023/06/27 09:10:26;;;;;;;1.52;0.40;;;;;;;;;;5051762;28;20051;-62
2023/06/27 09:12:54;;;;;;;0.38;0.22;;;;;;;;;;5060884;28;20732;-62
2023/06/27 09:15:20;;;;;;;1.10;0.45;;;;;;;;;;5054497;28;20048;-61
2023/06/27 09:17:47;;;;;;;0.85;0.43;;;;;;;;;;5053258;28;20040;-63
2023/06/27 09:20:19;;;;;;;1.05;0.45;;;;;;;;;;5060788;28;20280;-62
2023/06/27 09:22:46;;;;;;;0.57;0.15;;;;;;;;;;5062396;28;20043;-61
2023/06/27 09:25:16;;;;;;;0.60;0.45;;;;;;;;;;5063554;28;20484;-63
2023/06/27 09:27:42;;;;;;;0.60;0.30;;;;;;;;;;5066620;28;20040;-62
2023/06/27 09:30:09;;;;;;;0.77;0.22;;;;;;;;;;5061148;28;20139;-62
2023/06/27 09:32:51;;;;;;;0.43;0.20;;;;;;;;;;5057430;28;20041;-62
2023/06/27 09:35:17;;;;;;;2.13;0.68;;;;;;;;;;5054014;28;20722;-61
2023/06/27 09:37:43;;;;;;;1.30;0.50;;;;;;;;;;5065236;28;20045;-62
2023/06/27 09:40:19;;;;;;;0.50;0.50;;;;;;;;;;5053373;28;21252;-62
2023/06/27 09:42:56;;;;;;;1.40;0.88;;;;;;;;;;5046883;28;20041;-62
2023/06/27 09:45:23;;;;;;;1.83;0.80;;;;;;;;;;5052298;28;20773;-62
2023/06/27 09:47:52;;;;;;;0.85;0.50;;;;;;;;;;5058832;28;20045;-62
2023/06/27 09:50:24;;;;;;;3.17;0.95;;;;;;;;;;5058404;28;20040;-62
2023/06/27 09:52:50;;;;;;;;;;;;;;;;;;5058926;28;20044;-62
2023/06/27 09:55:18;;;;;;;0.70;0.65;;;;;;;;;;5053545;28;19925;-61
2023/06/27 09:57:44;;;;;;;0.70;0.50;;;;;;;;;;5058855;28;20037;-61
2023/06/27 10:00:11;;;;;;;0.47;0.32;;;;;;;;;;5050290;28;20067;-63
2023/06/27 10:02:37;;;;;;;1.60;0.47;;;;;;;;;;5051812;28;20129;-67
2023/06/27 10:05:04;;;;;;;1.10;0.30;;;;;;;;;;5051162;28;20045;-64
2023/06/27 10:07:31;;;;;;;0.20;0.20;;;;;;;;;;5053179;28;20056;-61
2023/06/27 10:09:57;;;;;;;2.38;0.52;;;;;;;;;;5052921;28;20040;-61
2023/06/27 10:12:24;;;;;;;0.80;0.30;;;;;;;;;;5051821;28;20303;-61
2023/06/27 10:14:50;;;;;;;0.82;0.60;;;;;;;;;;5057888;28;20281;-61
2023/06/27 10:17:18;;;;;;;0.82;0.40;;;;;;;;;;5052018;28;20400;-61
2023/06/27 10:19:45;;;;;;;1.58;0.60;;;;;;;;;;5061057;28;20385;-61
2023/06/27 10:22:14;;;;;;;2.00;0.57;;;;;;;;;;5055214;28;20044;-61
2023/06/27 10:24:41;;;;;;;0.98;0.70;;;;;;;;;;5054078;28;20487;-61
2023/06/27 10:27:07;;;;;;;1.30;0.75;;;;;;;;;;5048971;28;20551;-64
2023/06/27 10:29:34;;;;;;;1.88;0.70;;;;;;;;;;5059968;28;20040;-63
2023/06/27 10:32:00;;;;;;;1.75;0.98;;;;;;;;;;5055776;28;20041;-64
2023/06/27 10:34:29;;;;;;;1.90;0.65;;;;;;;;;;5050210;28;20043;-63
2023/06/27 10:36:55;;;;;;;0.77;0.57;;;;;;;;;;5052243;28;20045;-63
2023/06/27 10:39:27;;;;;;;2.90;0.75;;;;;;;;;;5051341;28;20059;-63
2023/06/27 10:41:52;;;;;;;;;;;;;;;;;;5052246;28;20044;-64
2023/06/27 10:44:18;;;;;;;1.65;0.40;;;;;;;;;;5051264;28;19920;-64
2023/06/27 10:46:44;;;;;;;0.73;0.50;;;;;;;;;;5050582;28;20439;-63
2023/06/27 10:49:11;;;;;;;2.92;0.70;;;;;;;;;;5047228;28;20048;-63
2023/06/27 10:51:59;;;;;;;0.80;0.40;;;;;;;;;;5048983;28;20048;-63
2023/06/27 10:54:25;;;;;;;1.58;0.70;;;;;;;;;;5052745;28;20047;-63
2023/06/27 10:56:53;;;;;;;1.38;0.50;;;;;;;;;;5051098;28;20045;-63
2023/06/27 10:59:20;;;;;;;0.95;0.50;;;;;;;;;;5063100;28;20068;-63
2023/06/27 11:02:01;;;;;;;0.65;0.50;;;;;;;;;;5061743;28;20044;-63
2023/06/27 11:04:39;;;;;;;0.85;0.20;;;;;;;;;;5058184;28;20037;-63
2023/06/27 11:07:07;;;;;;;0.95;0.50;;;;;;;;;;5058410;28;20044;-64
2023/06/27 11:09:34;;;;;;;0.57;0.30;;;;;;;;;;5054551;28;20084;-63
2023/06/27 11:12:15;;;;;;;0.47;0.15;;;;;;;;;;5054332;28;20067;-63
2023/06/27 11:14:42;;;;;;;0.47;0.20;;;;;;;;;;5058128;28;20060;-63
2023/06/27 11:17:09;;;;;;;1.40;0.38;;;;;;;;;;5054863;28;20474;-63
2023/06/27 11:19:35;;;;;;;0.47;0.20;;;;;;;;;;5057548;28;20124;-63
2023/06/27 11:22:02;;;;;;;0.08;0.08;;;;;;;;;;5060145;28;20416;-64
2023/06/27 11:24:32;;;;;;;1.88;0.32;;;;;;;;;;5063842;28;20033;-62
2023/06/27 11:26:58;;;;;;;0.93;0.30;;;;;;;;;;5052487;28;20135;-67
2023/06/27 11:29:25;;;;;;;0.52;0.22;;;;;;;;;;5056010;28;20451;-63
2023/06/27 11:31:51;;;;;;;0.30;0.15;;;;;;;;;;5057399;28;20048;-62
2023/06/27 11:34:18;;;;;;;0.25;0.20;;;;;;;;;;5062232;28;20043;-63
2023/06/27 11:36:45;;;;;;;0.52;0.20;;;;;;;;;;5059460;28;20057;-67
2023/06/27 11:39:11;;;;;;;2.15;0.50;;;;;;;;;;5054433;28;20576;-61
2023/06/27 11:41:41;;;;;;;0.20;0.20;;;;;;;;;;5062423;28;20034;-61
2023/06/27 11:44:17;;;;;;;1.02;0.38;;;;;;;;;;5056009;28;20697;-61
2023/06/27 11:46:49;;;;;;;0.63;0.22;;;;;;;;;;5056844;28;20074;-61
2023/06/27 11:49:16;;;;;;;2.08;0.50;;;;;;;;;;5064816;28;20385;-61
2023/06/27 11:51:42;;;;;;;0.85;0.30;;;;;;;;;;5052005;28;20045;-61
2023/06/27 11:54:08;;;;;;;0.28;0.20;;;;;;;;;;5055307;28;20040;-61
2023/06/27 11:56:40;;;;;;;1.08;0.20;;;;;;;;;;5062683;28;20388;-61
2023/06/27 11:59:06;;;;;;;;;;;;;;;;;;5066901;28;20454;-61
2023/06/27 12:01:33;;;;;;;0.65;0.20;;;;;;;;;;5057654;28;19920;-61
2023/06/27 12:04:03;;;;;;;0.35;0.20;;;;;;;;;;5059882;28;20055;-61
2023/06/27 12:06:31;;;;;;;1.00;0.35;;;;;;;;;;5050979;28;20389;-62
2023/06/27 12:08:58;;;;;;;1.25;0.25;;;;;;;;;;5048623;28;20372;-61
2023/06/27 12:11:28;;;;;;;0.20;0.20;;;;;;;;;;5052087;28;20056;-62
2023/06/27 12:13:55;;;;;;;0.10;0.10;;;;;;;;;;5059951;28;20044;-60
2023/06/27 12:16:29;;;;;;;0.00;0.00;;;;;;;;;;5053949;28;20204;-60
2023/06/27 12:19:05;;;;;;;0.10;0.10;;;;;;;;;;5055554;28;20394;-60
2023/06/27 12:21:31;;;;;;;0.52;0.30;;;;;;;;;;5057570;28;20486;-62
2023/06/27 12:23:57;;;;;;;0.75;0.30;;;;;;;;;;5061558;28;20056;-61
2023/06/27 12:26:23;;;;;;;0.40;0.20;;;;;;;;;;5054586;28;20221;-62
2023/06/27 12:28:56;;;;;;;0.35;0.10;;;;;;;;;;5057015;28;20047;-63
2023/06/27 12:31:22;;;;;;;0.45;0.22;;;;;;;;;;5061764;28;20045;-62
2023/06/27 12:33:48;;;;;;;0.43;0.20;;;;;;;;;;5058937;28;20308;-59
2023/06/27 12:36:15;;;;;;;0.20;0.20;;;;;;;;;;5063947;28;20553;-61
2023/06/27 12:38:41;;;;;;;0.30;0.20;;;;;;;;;;5062452;28;20127;-61
2023/06/27 12:41:07;;;;;;;0.80;0.32;;;;;;;;;;5059325;28;20087;-61
2023/06/27 12:43:33;;;;;;;0.38;0.25;;;;;;;;;;5057030;28;20072;-61
2023/06/27 12:46:03;;;;;;;0.30;0.22;;;;;;;;;;5053548;28;20079;-62
2023/06/27 12:48:29;;;;;;;1.50;0.30;;;;;;;;;;5051963;28;20051;-60
2023/06/27 12:50:55;;;;;;;0.20;0.10;;;;;;;;;;5053729;28;20541;-60
2023/06/27 12:53:21;;;;;;;0.25;0.20;;;;;;;;;;5064847;28;20079;-61
2023/06/27 12:55:47;;;;;;;0.40;0.20;;;;;;;;;;5063517;28;20037;-61
2023/06/27 12:58:13;;;;;;;2.40;0.30;;;;;;;;;;5059463;28;20403;-60
2023/06/27 13:00:41;;;;;;;1.20;0.28;;;;;;;;;;5060701;28;20046;-60
2023/06/27 13:03:07;;;;;;;0.90;0.38;;;;;;;;;;5062060;28;20051;-60
2023/06/27 13:05:33;;;;;;;0.70;0.40;;;;;;;;;;5063589;28;20033;-59
2023/06/27 13:07:59;;;;;;;1.42;0.50;;;;;;;;;;5057695;28;20512;-58
2023/06/27 13:10:26;;;;;;;0.95;0.50;;;;;;;;;;5063716;28;20047;-58
2023/06/27 13:12:52;;;;;;;1.45;0.30;;;;;;;;;;5065008;28;20048;-60
2023/06/27 13:15:18;;;;;;;1.08;0.40;;;;;;;;;;5061182;28;20037;-60
2023/06/27 13:17:45;;;;;;;2.78;0.75;;;;;;;;;;5052278;28;20110;-60
2023/06/27 13:20:12;;;;;;;0.73;0.32;;;;;;;;;;5058822;28;20044;-60
2023/06/27 13:22:38;;;;;;;0.93;0.47;;;;;;;;;;5057359;28;20041;-58
2023/06/27 13:25:04;;;;;;;0.82;0.25;;;;;;;;;;5054055;28;20123;-58
2023/06/27 13:27:31;;;;;;;0.50;0.20;;;;;;;;;;5057607;28;20044;-58
2023/06/27 13:29:57;;;;;;;0.40;0.20;;;;;;;;;;5057980;28;20049;-57
2023/06/27 13:32:24;;;;;;;0.43;0.20;;;;;;;;;;5047120;28;20032;-57
2023/06/27 13:34:50;;;;;;;0.85;0.30;;;;;;;;;;5064502;28;20048;-61
2023/06/27 13:37:16;;;;;;;0.35;0.20;;;;;;;;;;5064886;28;20063;-58
2023/06/27 13:39:42;;;;;;;0.50;0.30;;;;;;;;;;5064398;28;20068;-58
2023/06/27 13:42:09;;;;;;;1.27;0.55;;;;;;;;;;5064725;28;20086;-61
2023/06/27 13:44:35;;;;;;;0.15;0.15;;;;;;;;;;5065163;28;20506;-61
2023/06/27 13:47:01;;;;;;;0.50;0.28;;;;;;;;;;5056186;28;20082;-61
2023/06/27 13:49:28;;;;;;;0.08;0.08;;;;;;;;;;5064604;28;20371;-55
2023/06/27 13:51:54;;;;;;;0.20;0.10;;;;;;;;;;5064930;28;20048;-61
2023/06/27 13:54:21;;;;;;;0.43;0.17;;;;;;;;;;5052604;28;20047;-61
2023/06/27 13:56:47;;;;;;;0.22;0.10;;;;;;;;;;5056566;28;20098;-60
2023/06/27 13:59:13;;;;;;;0.80;0.13;;;;;;;;;;5054367;28;20048;-61
2023/06/27 14:01:39;;;;;;;0.10;0.10;;;;;;;;;;5048819;28;20029;-60
2023/06/27 14:04:05;;;;;;;0.60;0.40;;;;;;;;;;5051795;28;20460;-61
2023/06/27 14:06:32;;;;;;;0.68;0.30;;;;;;;;;;5049966;28;20144;-61
2023/06/27 14:08:58;;;;;;;0.25;0.20;;;;;;;;;;5056666;28;20063;-61
2023/06/27 14:11:24;;;;;;;0.50;0.22;;;;;;;;;;5054112;28;20550;-60
2023/06/27 14:13:50;;;;;;;0.20;0.10;;;;;;;;;;5052527;28;20499;-61
2023/06/27 14:16:20;;;;;;;0.88;0.40;;;;;;;;;;5053979;28;20076;-61
2023/06/27 14:18:47;;;;;;;0.35;0.20;;;;;;;;;;5051564;28;20095;-62
2023/06/27 14:21:15;;;;;;;0.45;0.22;;;;;;;;;;5052047;28;20051;-60
2023/06/27 14:23:41;;;;;;;0.17;0.10;;;;;;;;;;5049357;28;20074;-60
2023/06/27 14:26:08;;;;;;;0.30;0.17;;;;;;;;;;5052420;28;20136;-62
2023/06/27 14:28:34;;;;;;;0.50;0.30;;;;;;;;;;5048376;28;22921;-61
2023/06/27 14:31:00;;;;;;;0.82;0.40;;;;;;;;;;5050877;28;20044;-61
2023/06/27 14:33:26;;;;;;;0.30;0.30;;;;;;;;;;5049194;28;20460;-60
2023/06/27 14:35:53;;;;;;;0.43;0.30;;;;;;;;;;5050480;28;20404;-60
2023/06/27 14:38:20;;;;;;;0.65;0.20;;;;;;;;;;5053735;28;20111;-61
2023/06/27 14:40:46;;;;;;;0.20;0.17;;;;;;;;;;5049121;28;20044;-60